createdAt,value
2018-01-25T00:00:59.716Z,4.47
2018-01-25T00:03:27.242Z,6.43
2018-01-25T00:05:54.763Z,5.23
2018-01-25T00:08:22.305Z,5.30
2018-01-25T00:10:50.624Z,6.17
2018-01-25T00:13:18.132Z,3.53
2018-01-25T00:15:45.670Z,5.10
2018-01-25T00:18:13.181Z,3.97
2018-01-25T00:20:40.718Z,5.63
2018-01-25T00:23:08.229Z,6.63
2018-01-25T00:25:35.756Z,6.37
2018-01-25T00:28:04.044Z,4.67
2018-01-25T00:30:31.577Z,3.60
2018-01-25T00:32:59.194Z,3.40
2018-01-25T00:35:26.722Z,3.90
2018-01-25T00:37:54.998Z,6.63
2018-01-25T00:40:23.299Z,6.20
2018-01-25T00:42:50.818Z,5.17
2018-01-25T00:45:18.407Z,3.83
2018-01-25T00:47:45.912Z,4.00
2018-01-25T00:50:13.450Z,4.27
2018-01-25T00:52:40.957Z,3.47
2018-01-25T00:55:08.487Z,5.63
2018-01-25T00:57:36.005Z,4.27
2018-01-25T01:00:03.567Z,4.00
2018-01-25T01:02:31.086Z,3.80
2018-01-25T01:04:58.594Z,4.80
2018-01-25T01:07:26.130Z,2.90
2018-01-25T01:09:54.409Z,2.77
2018-01-25T01:12:22.697Z,2.80
2018-01-25T01:14:50.973Z,4.17
2018-01-25T01:17:19.259Z,3.70
2018-01-25T01:19:46.770Z,3.17
2018-01-25T01:22:14.304Z,6.43
2018-01-25T01:24:41.817Z,3.40
2018-01-25T01:27:09.352Z,3.10
2018-01-25T01:29:36.865Z,4.33
2018-01-25T01:32:04.392Z,3.10
2018-01-25T01:34:31.906Z,2.83
2018-01-25T01:36:59.442Z,4.30
2018-01-25T01:39:26.957Z,5.63
2018-01-25T01:41:54.468Z,4.80
2018-01-25T01:44:22.045Z,2.53
2018-01-25T01:46:49.561Z,5.37
2018-01-25T01:49:17.860Z,2.80
2018-01-25T01:51:46.132Z,2.53
2018-01-25T01:54:14.421Z,5.37
2018-01-25T01:56:41.938Z,3.03
2018-01-25T01:59:09.469Z,2.63
2018-01-25T02:01:36.981Z,2.40
2018-01-25T02:04:05.280Z,2.70
2018-01-25T02:06:32.797Z,4.07
2018-01-25T02:09:00.335Z,2.80
2018-01-25T02:11:27.844Z,5.03
2018-01-25T02:13:56.138Z,3.77
2018-01-25T02:16:23.644Z,2.40
2018-01-25T02:18:51.177Z,2.33
2018-01-25T02:21:18.697Z,2.87
2018-01-25T02:23:46.982Z,2.53
2018-01-25T02:26:15.277Z,3.00
2018-01-25T02:28:43.559Z,4.50
2018-01-25T02:31:11.089Z,3.10
2018-01-25T02:33:38.606Z,3.90
2018-01-25T02:36:06.145Z,4.23
2018-01-25T02:38:33.666Z,3.03
2018-01-25T02:41:01.201Z,2.93
2018-01-25T02:43:28.709Z,3.80
2018-01-25T02:45:57.009Z,2.57
2018-01-25T02:48:24.536Z,4.17
2018-01-25T02:50:52.841Z,3.03
2018-01-25T02:53:20.348Z,3.73
2018-01-25T02:55:47.884Z,2.63
2018-01-25T02:58:15.395Z,3.00
2018-01-25T03:00:42.921Z,3.03
2018-01-25T03:03:10.425Z,3.40
2018-01-25T03:05:38.725Z,2.90
2018-01-25T03:08:06.239Z,4.90
2018-01-25T03:10:33.768Z,3.33
2018-01-25T03:13:01.277Z,3.90
2018-01-25T03:15:28.810Z,2.97
2018-01-25T03:17:56.334Z,4.93
2018-01-25T03:20:23.876Z,5.30
2018-01-25T03:22:52.158Z,2.80
2018-01-25T03:25:20.436Z,3.23
2018-01-25T03:27:48.729Z,3.87
2018-01-25T03:30:16.307Z,2.73
2018-01-25T03:32:43.842Z,2.77
2018-01-25T03:35:11.354Z,2.73
2018-01-25T03:37:38.881Z,4.70
2018-01-25T03:40:06.390Z,5.70
2018-01-25T03:42:33.917Z,4.30
2018-01-25T03:45:01.425Z,4.53
2018-01-25T03:47:29.726Z,4.30
2018-01-25T03:49:57.243Z,3.30
2018-01-25T03:52:24.769Z,3.47
2018-01-25T03:54:52.283Z,3.40
2018-01-25T03:57:20.589Z,3.47
2018-01-25T03:59:48.103Z,4.10
2018-01-25T04:02:15.613Z,4.80
2018-01-25T04:04:43.145Z,4.97
2018-01-25T04:07:11.425Z,4.30
2018-01-25T04:09:39.720Z,5.17
2018-01-25T04:12:07.237Z,4.00
2018-01-25T04:14:34.768Z,4.40
2018-01-25T04:17:02.286Z,3.60
2018-01-25T04:19:30.592Z,4.83
2018-01-25T04:21:58.097Z,3.57
2018-01-25T04:24:25.724Z,6.90
2018-01-25T04:26:53.282Z,2.93
2018-01-25T04:29:20.813Z,3.27
2018-01-25T04:31:49.084Z,4.63
2018-01-25T04:34:17.395Z,7.53
2018-01-25T04:36:44.965Z,4.30
2018-01-25T04:39:12.497Z,4.03
2018-01-25T04:41:40.804Z,4.83
2018-01-25T04:44:08.317Z,3.10
2018-01-25T04:46:35.849Z,3.63
2018-01-25T04:49:03.362Z,2.87
2018-01-25T04:51:30.889Z,3.40
2018-01-25T04:53:58.405Z,4.63
2018-01-25T04:56:25.940Z,3.40
2018-01-25T04:58:54.217Z,4.47
2018-01-25T05:01:22.505Z,3.70
2018-01-25T05:03:50.804Z,5.30
2018-01-25T05:06:18.328Z,3.60
2018-01-25T05:08:46.643Z,5.87
2018-01-25T05:11:14.184Z,6.87
2018-01-25T05:13:41.700Z,6.27
2018-01-25T05:16:09.224Z,4.63
2018-01-25T05:18:36.757Z,4.10
2018-01-25T05:21:05.037Z,3.33
2018-01-25T05:23:33.337Z,4.67
2018-01-25T05:26:00.854Z,4.30
2018-01-25T05:28:28.413Z,3.60
2018-01-25T05:30:55.925Z,3.30
2018-01-25T05:33:23.463Z,3.10
2018-01-25T05:35:50.980Z,3.40
2018-01-25T05:38:18.605Z,2.43
2018-01-25T05:40:46.121Z,3.23
2018-01-25T05:43:14.425Z,3.27
2018-01-25T05:45:41.943Z,2.43
2018-01-25T05:48:09.456Z,3.37
2018-01-25T05:50:36.989Z,3.07
2018-01-25T05:53:05.266Z,3.37
2018-01-25T05:55:33.556Z,2.87
2018-01-25T05:58:01.840Z,2.87
2018-01-25T06:00:29.372Z,3.40
2018-01-25T06:02:56.981Z,4.07
2018-01-25T06:05:24.514Z,3.50
2018-01-25T06:07:52.820Z,2.33
2018-01-25T06:10:20.355Z,2.17
2018-01-25T06:12:48.752Z,3.97
2018-01-25T06:15:16.295Z,3.60
2018-01-25T06:17:44.569Z,4.90
2018-01-25T06:20:12.865Z,9.70
2018-01-25T06:22:40.377Z,9.70
2018-01-25T06:25:07.888Z,6.13
2018-01-25T06:27:35.417Z,4.80
2018-01-25T06:30:02.927Z,6.10
2018-01-25T06:32:30.459Z,7.10
2018-01-25T06:34:58.045Z,3.40
2018-01-25T06:37:25.572Z,3.17
2018-01-25T06:39:53.844Z,2.90
2018-01-25T06:42:22.144Z,4.03
2018-01-25T06:44:50.421Z,7.63
2018-01-25T06:47:18.801Z,2.87
2018-01-25T06:49:46.337Z,2.40
2018-01-25T06:52:13.870Z,2.60
2018-01-25T06:54:41.381Z,2.63
2018-01-25T06:57:09.785Z,2.10
2018-01-25T06:59:37.302Z,2.60
2018-01-25T07:02:04.915Z,3.20
2018-01-25T07:04:32.424Z,5.10
2018-01-25T07:07:00.033Z,4.10
2018-01-25T07:09:27.544Z,6.10
2018-01-25T07:11:55.078Z,5.23
2018-01-25T07:14:22.590Z,4.10
2018-01-25T07:16:50.885Z,3.30
2018-01-25T07:19:18.406Z,3.97
2018-01-25T07:21:45.992Z,4.23
2018-01-25T07:24:13.468Z,3.47
2018-01-25T07:26:41.738Z,5.87
2018-01-25T07:29:10.037Z,3.63
2018-01-25T07:31:37.552Z,2.70
2018-01-25T07:34:05.083Z,3.07
2018-01-25T07:36:32.594Z,4.93
2018-01-25T07:39:00.923Z,3.00
2018-01-25T07:41:28.464Z,3.00
2018-01-25T07:43:55.997Z,3.23
2018-01-25T07:46:24.273Z,5.10
2018-01-25T07:48:52.568Z,3.20
2018-01-25T07:51:20.097Z,4.17
2018-01-25T07:53:47.626Z,4.63
2018-01-25T07:56:15.139Z,3.40
2018-01-25T07:58:43.449Z,4.17
2018-01-25T08:01:10.963Z,6.87
2018-01-25T08:03:38.497Z,5.20
2018-01-25T08:06:06.012Z,3.80
2018-01-25T08:08:33.593Z,4.07
2018-01-25T08:11:01.106Z,4.53
2018-01-25T08:13:34.252Z,3.50
2018-01-25T08:18:59.578Z,4.40
2018-01-25T08:21:27.090Z,4.53
2018-01-25T08:23:55.397Z,3.70
2018-01-25T08:26:22.907Z,2.67
2018-01-25T08:28:50.421Z,4.67
2018-01-25T08:31:17.941Z,4.80
2018-01-25T08:33:46.218Z,3.53
2018-01-25T08:36:13.742Z,2.90
2018-01-25T08:38:41.254Z,3.63
2018-01-25T08:41:09.571Z,2.50
2018-01-25T08:43:37.100Z,5.80
2018-01-25T08:46:05.376Z,4.53
2018-01-25T08:48:33.667Z,4.17
2018-01-25T08:51:01.199Z,3.03
2018-01-25T08:53:29.505Z,2.90
2018-01-25T08:55:57.019Z,5.17
2018-01-25T08:58:24.558Z,6.40
2018-01-25T09:00:52.077Z,5.13
2018-01-25T09:03:20.370Z,3.03
2018-01-25T09:05:47.877Z,3.93
2018-01-25T09:08:15.406Z,3.63
2018-01-25T09:10:42.914Z,3.30
2018-01-25T09:13:10.441Z,2.20
2018-01-25T09:15:37.949Z,2.90
2018-01-25T09:18:06.245Z,4.67
2018-01-25T09:20:33.757Z,3.50
2018-01-25T09:23:02.088Z,3.10
2018-01-25T09:25:29.592Z,4.40
2018-01-25T09:27:57.708Z,6.40
2018-01-25T09:30:25.218Z,4.37
2018-01-25T09:32:52.759Z,5.60
2018-01-25T09:35:20.264Z,7.00
2018-01-25T09:37:48.561Z,9.20
2018-01-25T09:40:16.074Z,13.03
2018-01-25T09:42:43.610Z,13.07
2018-01-25T09:45:11.121Z,8.90
2018-01-25T09:47:39.415Z,4.70
2018-01-25T09:50:07.694Z,18.50
2018-01-25T09:52:36.000Z,12.87
2018-01-25T09:55:03.500Z,9.13
2018-01-25T09:57:31.817Z,6.97
2018-01-25T09:59:59.333Z,11.00
2018-01-25T10:02:26.846Z,13.03
2018-01-25T10:04:54.374Z,12.20
2018-01-25T10:07:22.647Z,5.67
2018-01-25T10:09:50.940Z,6.63
2018-01-25T10:12:19.219Z,7.73
2018-01-25T10:14:47.512Z,12.20
2018-01-25T10:17:15.020Z,6.17
2018-01-25T10:19:42.548Z,5.03
2018-01-25T10:22:10.053Z,4.93
2018-01-25T10:24:37.613Z,4.07
2018-01-25T10:27:06.624Z,3.10
2018-01-25T10:29:34.921Z,5.17
2018-01-25T10:32:02.488Z,3.20
2018-01-25T10:34:30.024Z,3.10
2018-01-25T10:36:58.302Z,6.53
2018-01-25T10:39:26.601Z,3.20
2018-01-25T10:41:54.112Z,6.53
2018-01-25T10:44:21.732Z,3.77
2018-01-25T10:46:49.944Z,4.20
2018-01-25T10:49:17.468Z,2.73
2018-01-25T10:51:44.983Z,4.40
2018-01-25T10:54:12.508Z,4.23
2018-01-25T10:56:40.054Z,4.73
2018-01-25T10:59:07.586Z,4.80
2018-01-25T11:01:40.708Z,4.67
2018-01-25T11:04:08.236Z,4.83
2018-01-25T11:06:36.514Z,3.43
2018-01-25T11:09:04.045Z,4.17
2018-01-25T11:11:31.653Z,3.80
2018-01-25T11:13:59.208Z,5.60
2018-01-25T11:16:26.745Z,2.80
2018-01-25T11:18:55.026Z,4.00
2018-01-25T11:21:23.330Z,2.80
2018-01-25T11:23:50.850Z,3.83
2018-01-25T11:26:19.166Z,2.97
2018-01-25T11:28:46.671Z,3.97
2018-01-25T11:31:14.978Z,3.27
2018-01-25T11:33:43.251Z,2.50
2018-01-25T11:36:11.551Z,2.33
2018-01-25T11:38:39.119Z,2.97
2018-01-25T11:41:06.649Z,3.90
2018-01-25T11:43:34.928Z,8.70
2018-01-25T11:46:03.221Z,5.43
2018-01-25T11:48:30.742Z,2.70
2018-01-25T11:50:58.270Z,4.83
2018-01-25T11:53:25.777Z,4.60
2018-01-25T11:55:54.044Z,1.93
2018-01-25T11:58:21.569Z,2.60
2018-01-25T12:00:49.084Z,2.83
2018-01-25T12:03:17.488Z,2.87
2018-01-25T12:05:45.006Z,3.30
2018-01-25T12:08:13.302Z,4.27
2018-01-25T12:10:41.577Z,3.10
2018-01-25T12:13:09.869Z,1.87
2018-01-25T12:15:37.438Z,3.50
2018-01-25T12:18:04.965Z,3.07
2018-01-25T12:20:33.238Z,2.30
2018-01-25T12:23:01.532Z,2.70
2018-01-25T12:25:29.809Z,2.53
2018-01-25T12:27:58.101Z,2.30
2018-01-25T12:30:25.605Z,2.50
2018-01-25T12:32:53.132Z,3.20
2018-01-25T12:35:20.685Z,2.57
2018-01-25T12:37:48.224Z,2.77
2018-01-25T12:40:16.522Z,3.50
2018-01-25T12:42:44.056Z,4.50
2018-01-25T12:45:12.362Z,2.03
2018-01-25T12:47:39.868Z,2.50
2018-01-25T12:50:07.392Z,3.20
2018-01-25T12:52:34.900Z,3.33
2018-01-25T12:55:02.420Z,3.10
2018-01-25T12:57:29.980Z,2.23
2018-01-25T12:59:57.519Z,2.40
2018-01-25T13:02:25.088Z,2.53
2018-01-25T13:04:52.624Z,2.97
2018-01-25T13:07:20.159Z,2.67
2018-01-25T13:09:47.692Z,2.43
2018-01-25T13:12:15.197Z,2.90
2018-01-25T13:14:43.482Z,2.93
2018-01-25T13:17:11.786Z,2.60
2018-01-25T13:19:39.299Z,3.20
2018-01-25T13:22:07.760Z,4.00
2018-01-25T13:24:35.258Z,3.83
2018-01-25T13:27:03.665Z,2.57
2018-01-25T13:29:31.185Z,2.43
2018-01-25T13:31:58.789Z,3.67
2018-01-25T13:34:26.306Z,10.37
2018-01-25T13:36:54.617Z,7.77
2018-01-25T13:39:22.129Z,3.27
2018-01-25T13:41:49.657Z,3.10
2018-01-25T13:44:17.170Z,3.43
2018-01-25T13:46:45.470Z,4.67
2018-01-25T13:49:12.982Z,2.47
2018-01-25T13:51:40.512Z,3.63
2018-01-25T13:54:08.026Z,5.17
2018-01-25T13:56:36.338Z,2.30
2018-01-25T13:59:03.840Z,6.53
2018-01-25T14:01:31.352Z,3.20
2018-01-25T14:03:58.920Z,2.50
2018-01-25T14:06:26.473Z,3.13
2018-01-25T14:08:54.005Z,2.77
2018-01-25T14:11:22.320Z,3.70
2018-01-25T14:13:49.888Z,3.80
2018-01-25T14:16:17.398Z,2.60
2018-01-25T14:18:45.693Z,4.07
2018-01-25T14:21:13.973Z,3.10
2018-01-25T14:23:41.509Z,2.30
2018-01-25T14:26:09.792Z,2.17
2018-01-25T14:28:38.068Z,2.70
2018-01-25T14:31:06.381Z,2.90
2018-01-25T14:33:33.883Z,3.20
2018-01-25T14:36:01.410Z,2.40
2018-01-25T14:38:28.918Z,3.20
2018-01-25T14:40:56.437Z,3.10
2018-01-25T14:43:23.949Z,2.30
2018-01-25T14:45:52.236Z,2.30
2018-01-25T14:48:20.514Z,1.83
2018-01-25T14:50:48.815Z,2.07
2018-01-25T14:53:16.325Z,2.33
2018-01-25T14:55:43.858Z,3.03
2018-01-25T14:58:11.385Z,3.43
2018-01-25T15:00:38.918Z,2.63
2018-01-25T15:03:07.188Z,2.77
2018-01-25T15:05:34.731Z,1.93
2018-01-25T15:08:02.239Z,3.97
2018-01-25T15:10:29.752Z,3.33
2018-01-25T15:12:57.276Z,3.00
2018-01-25T15:15:24.785Z,4.40
2018-01-25T15:17:52.313Z,3.80
2018-01-25T15:20:19.829Z,3.70
2018-01-25T15:22:47.362Z,3.00
2018-01-25T15:25:20.661Z,5.27
2018-01-25T15:27:48.193Z,2.93
2018-01-25T15:30:16.483Z,13.70
2018-01-25T15:32:44.042Z,18.23
2018-01-25T15:35:11.553Z,6.03
2018-01-25T15:37:39.077Z,7.57
2018-01-25T15:40:07.346Z,3.33
2018-01-25T15:42:36.381Z,3.07
2018-01-25T15:45:03.886Z,2.20
2018-01-25T15:47:31.413Z,2.80
2018-01-25T15:49:58.937Z,2.27
2018-01-25T15:52:27.236Z,3.23
2018-01-25T15:54:54.806Z,3.17
2018-01-25T15:57:22.338Z,4.37
2018-01-25T15:59:50.613Z,3.70
2018-01-25T16:02:18.916Z,3.90
2018-01-25T16:04:46.433Z,2.83
2018-01-25T16:07:14.053Z,3.47
2018-01-25T16:09:41.571Z,3.73
2018-01-25T16:12:09.085Z,3.03
2018-01-25T16:14:36.628Z,3.40
2018-01-25T16:17:04.136Z,4.50
2018-01-25T16:19:31.667Z,4.57
2018-01-25T16:21:59.173Z,4.63
2018-01-25T16:24:27.473Z,4.17
2018-01-25T16:26:55.753Z,3.20
2018-01-25T16:29:23.289Z,3.67
2018-01-25T16:31:52.856Z,2.70
2018-01-25T16:34:21.208Z,3.20
2018-01-25T16:36:48.710Z,4.33
2018-01-25T16:39:16.237Z,3.47
2018-01-25T16:41:43.749Z,3.97
2018-01-25T16:44:11.361Z,4.17
2018-01-25T16:46:38.926Z,5.90
2018-01-25T16:49:06.462Z,4.27
2018-01-25T16:51:34.734Z,5.50
2018-01-25T16:54:03.044Z,3.07
2018-01-25T16:56:30.557Z,3.20
2018-01-25T16:58:58.089Z,3.30
2018-01-25T17:01:25.657Z,3.67
2018-01-25T17:03:53.198Z,6.23
2018-01-25T17:06:20.717Z,4.27
2018-01-25T17:08:49.023Z,3.60
2018-01-25T17:11:16.537Z,4.93
2018-01-25T17:13:44.814Z,8.43
2018-01-25T17:16:12.350Z,3.93
2018-01-25T17:18:39.856Z,3.93
2018-01-25T17:21:08.265Z,3.97
2018-01-25T17:23:35.788Z,4.47
2018-01-25T17:26:04.097Z,7.20
2018-01-25T17:28:31.605Z,5.30
2018-01-25T17:30:59.271Z,4.00
2018-01-25T17:33:26.786Z,4.17
2018-01-25T17:35:54.337Z,5.43
2018-01-25T17:38:21.849Z,4.10
2018-01-25T17:40:49.466Z,3.93
2018-01-25T17:43:16.973Z,3.60
2018-01-25T17:45:45.326Z,5.87
2018-01-25T17:48:12.919Z,5.17
2018-01-25T17:50:42.066Z,6.77
2018-01-25T17:53:09.578Z,5.33
2018-01-25T17:55:37.877Z,4.97
2018-01-25T17:58:06.203Z,7.80
2018-01-25T18:00:33.841Z,3.60
2018-01-25T18:03:01.347Z,4.13
2018-01-25T18:05:28.876Z,5.53
2018-01-25T18:07:57.128Z,3.77
2018-01-25T18:10:24.717Z,4.97
2018-01-25T18:12:52.276Z,4.07
2018-01-25T18:15:19.789Z,3.50
2018-01-25T18:17:48.087Z,3.90
2018-01-25T18:20:15.652Z,4.00
2018-01-25T18:22:43.183Z,4.17
2018-01-25T18:25:11.459Z,4.00
2018-01-25T18:27:39.766Z,3.00
2018-01-25T18:30:07.333Z,5.33
2018-01-25T18:32:34.869Z,5.33
2018-01-25T18:35:03.165Z,3.20
2018-01-25T18:37:30.734Z,3.93
2018-01-25T18:39:58.352Z,3.60
2018-01-25T18:42:26.688Z,3.17
2018-01-25T18:44:54.284Z,3.20
2018-01-25T18:47:21.794Z,4.77
2018-01-25T18:49:49.321Z,3.40
2018-01-25T18:52:17.597Z,3.30
2018-01-25T18:54:45.944Z,3.30
2018-01-25T18:57:13.478Z,20.37
2018-01-25T18:59:41.073Z,20.13
2018-01-25T19:02:08.584Z,17.70
2018-01-25T19:04:36.169Z,11.00
2018-01-25T19:07:03.732Z,9.47
2018-01-25T19:09:31.316Z,10.83
2018-01-25T19:11:58.880Z,7.13
2018-01-25T19:14:26.468Z,6.97
2018-01-25T19:16:54.801Z,9.10
2018-01-25T19:19:22.334Z,7.80
2018-01-25T19:21:49.903Z,7.37
2018-01-25T19:24:17.490Z,4.50
2018-01-25T19:26:45.008Z,5.03
2018-01-25T19:29:12.537Z,4.90
2018-01-25T19:31:40.818Z,4.20
2018-01-25T19:34:09.174Z,5.07
2018-01-25T19:36:36.701Z,5.93
2018-01-25T19:39:04.296Z,4.47
2018-01-25T19:41:31.870Z,3.67
2018-01-25T19:43:59.458Z,3.50
2018-01-25T19:46:27.787Z,4.27
2018-01-25T19:48:55.373Z,7.40
2018-01-25T19:51:22.940Z,4.37
2018-01-25T19:53:51.245Z,8.03
2018-01-25T19:56:18.809Z,8.90
2018-01-25T19:58:46.341Z,5.63
2018-01-25T20:01:14.675Z,6.47
2018-01-25T20:03:42.261Z,4.70
2018-01-25T20:06:09.821Z,4.77
2018-01-25T20:08:37.412Z,4.20
2018-01-25T20:11:05.744Z,5.43
2018-01-25T20:13:33.303Z,4.87
2018-01-25T20:16:00.996Z,5.40
2018-01-25T20:18:28.613Z,5.07
2018-01-25T20:20:56.195Z,5.13
2018-01-25T20:23:23.756Z,4.30
2018-01-25T20:25:51.345Z,5.83
2018-01-25T20:28:18.855Z,4.17
2018-01-25T20:30:46.442Z,4.13
2018-01-25T20:33:14.018Z,3.27
2018-01-25T20:35:41.597Z,5.07
2018-01-25T20:38:09.109Z,4.97
2018-01-25T20:40:36.697Z,4.40
2018-01-25T20:43:04.268Z,4.57
2018-01-25T20:45:31.852Z,4.30
2018-01-25T20:48:00.132Z,3.87
2018-01-25T20:50:27.718Z,4.37
2018-01-25T20:52:55.230Z,4.33
2018-01-25T20:55:22.813Z,3.70
2018-01-25T20:57:51.090Z,3.80
2018-01-25T21:00:19.442Z,3.97
2018-01-25T21:02:46.960Z,3.20
2018-01-25T21:05:14.539Z,4.63
2018-01-25T21:07:42.105Z,7.70
2018-01-25T21:10:09.694Z,6.30
2018-01-25T21:12:37.257Z,4.90
2018-01-25T21:15:04.784Z,5.97
2018-01-25T21:17:32.354Z,4.80
2018-01-25T21:19:59.948Z,4.93
2018-01-25T21:22:27.518Z,5.73
2018-01-25T21:24:55.107Z,4.33
2018-01-25T21:27:22.737Z,4.07
2018-01-25T21:29:50.300Z,7.57
2018-01-25T21:32:19.346Z,5.83
2018-01-25T21:34:46.856Z,3.23
2018-01-25T21:37:14.443Z,3.73
2018-01-25T21:39:42.758Z,6.20
2018-01-25T21:42:10.339Z,3.57
2018-01-25T21:44:37.849Z,5.60
2018-01-25T21:47:05.376Z,4.70
2018-01-25T21:49:32.901Z,3.77
2018-01-25T21:52:00.480Z,5.00
2018-01-25T21:54:28.036Z,4.80
2018-01-25T21:56:55.565Z,3.60
2018-01-25T21:59:23.182Z,3.40
2018-01-25T22:01:50.766Z,3.30
2018-01-25T22:04:19.050Z,3.43
2018-01-25T22:06:47.350Z,4.20
2018-01-25T22:09:14.975Z,3.27
2018-01-25T22:11:42.500Z,4.70
2018-01-25T22:14:10.088Z,4.77
2018-01-25T22:16:37.621Z,4.17
2018-01-25T22:19:05.176Z,4.40
2018-01-25T22:21:32.774Z,4.50
2018-01-25T22:24:00.448Z,5.57
2018-01-25T22:26:27.965Z,5.10
2018-01-25T22:28:55.545Z,5.27
2018-01-25T22:31:23.105Z,5.60
2018-01-25T22:33:50.633Z,3.60
2018-01-25T22:36:18.146Z,3.60
2018-01-25T22:38:45.817Z,2.80
2018-01-25T22:41:14.130Z,3.20
2018-01-25T22:43:41.666Z,8.80
2018-01-25T22:46:09.236Z,7.80
2018-01-25T22:48:37.584Z,6.10
2018-01-25T22:51:05.149Z,7.40
2018-01-25T22:53:32.728Z,7.00
2018-01-25T22:56:00.238Z,5.97
2018-01-25T22:58:27.762Z,7.20
2018-01-25T23:00:56.037Z,8.10
2018-01-25T23:03:24.383Z,9.83
2018-01-25T23:05:51.936Z,8.63
2018-01-25T23:08:19.517Z,6.03
2018-01-25T23:10:47.051Z,7.63
2018-01-25T23:13:14.636Z,5.63
2018-01-25T23:15:42.189Z,6.23
2018-01-25T23:18:09.775Z,5.73
2018-01-25T23:20:37.284Z,6.30
2018-01-25T23:23:04.818Z,5.63
2018-01-25T23:25:32.373Z,6.30
2018-01-25T23:28:00.664Z,7.20
2018-01-25T23:30:28.279Z,6.50
2018-01-25T23:32:55.850Z,4.97
2018-01-25T23:35:23.403Z,5.20
2018-01-25T23:37:51.742Z,5.87
2018-01-25T23:40:19.299Z,5.10
2018-01-25T23:42:46.827Z,7.23
2018-01-25T23:45:15.100Z,5.97
2018-01-25T23:47:43.392Z,9.30
2018-01-25T23:50:11.670Z,8.70
2018-01-25T23:52:39.962Z,8.97
2018-01-25T23:55:07.466Z,6.80
2018-01-25T23:57:35.001Z,11.40
